createdAt,value
2023-05-21T00:03:55.665Z,11.00
2023-05-21T00:13:59.008Z,10.50
2023-05-21T00:24:02.309Z,10.30
2023-05-21T00:34:05.610Z,9.50
2023-05-21T00:44:09.455Z,9.30
2023-05-21T00:54:13.007Z,9.60
2023-05-21T01:04:16.819Z,9.40
2023-05-21T01:14:21.373Z,9.60
2023-05-21T01:24:24.545Z,8.80
2023-05-21T01:34:40.928Z,9.30
2023-05-21T01:44:45.460Z,10.40
2023-05-21T01:54:50.131Z,10.80
2023-05-21T02:04:53.180Z,11.60
2023-05-21T02:14:56.569Z,11.00
2023-05-21T02:25:00.487Z,12.30
2023-05-21T02:35:04.906Z,10.80
2023-05-21T02:45:09.498Z,10.60
2023-05-21T02:55:13.316Z,9.60
2023-05-21T03:05:16.753Z,9.80
2023-05-21T03:15:24.307Z,9.80
2023-05-21T03:25:27.504Z,8.90
2023-05-21T03:35:31.446Z,9.20
2023-05-21T03:45:35.398Z,8.60
2023-05-21T03:55:57.581Z,8.80
2023-05-21T04:06:02.117Z,13.00
2023-05-21T04:16:05.502Z,13.90
2023-05-21T04:26:08.990Z,12.60
2023-05-21T04:36:17.376Z,13.00
2023-05-21T04:46:25.576Z,11.10
2023-05-21T04:56:30.157Z,11.70
2023-05-21T05:06:33.463Z,11.40
2023-05-21T05:16:36.808Z,9.30
2023-05-21T05:26:40.208Z,8.80
2023-05-21T05:36:43.414Z,8.40
2023-05-21T05:46:46.837Z,7.30
2023-05-21T05:56:50.700Z,6.60
2023-05-21T06:06:54.585Z,6.90
2023-05-21T06:16:57.702Z,6.50
2023-05-21T06:27:04.293Z,6.30
2023-05-21T06:37:08.212Z,6.60
2023-05-21T06:47:11.445Z,5.80
2023-05-21T06:57:16.628Z,6.50
2023-05-21T07:07:20.416Z,5.10
2023-05-21T07:17:24.867Z,4.90
2023-05-21T07:27:44.733Z,4.60
2023-05-21T07:38:14.698Z,4.20
2023-05-21T07:48:24.587Z,6.30
2023-05-21T07:58:37.899Z,5.30
2023-05-21T08:08:41.979Z,5.60
2023-05-21T08:19:06.057Z,5.80
2023-05-21T08:29:12.659Z,5.40
2023-05-21T08:39:21.168Z,5.30
2023-05-21T08:49:31.142Z,4.70
2023-05-21T08:59:37.122Z,4.40
2023-05-21T09:09:54.355Z,3.90
2023-05-21T09:20:14.644Z,3.30
2023-05-21T09:30:37.114Z,3.30
2023-05-21T09:40:48.026Z,3.10
2023-05-21T09:51:07.339Z,3.00
2023-05-21T10:01:42.152Z,2.80
2023-05-21T10:11:53.050Z,2.90
2023-05-21T10:21:57.468Z,2.90
2023-05-21T10:32:12.419Z,2.40
2023-05-21T10:53:10.646Z,2.20
2023-05-21T11:03:18.113Z,1.70
2023-05-21T11:13:44.736Z,1.90
2023-05-21T11:24:11.053Z,2.20
2023-05-21T11:34:41.307Z,2.40
2023-05-21T11:44:46.775Z,2.10
2023-05-21T11:54:55.727Z,2.30
2023-05-21T12:05:00.795Z,2.20
2023-05-21T12:15:04.629Z,2.30
2023-05-21T12:25:20.294Z,2.50
2023-05-21T12:35:24.535Z,2.60
2023-05-21T12:45:29.563Z,2.50
2023-05-21T12:56:07.363Z,2.70
2023-05-21T13:06:11.655Z,3.20
2023-05-21T13:17:00.558Z,2.80
2023-05-21T13:27:05.068Z,2.20
2023-05-21T13:37:08.488Z,2.60
2023-05-21T13:47:12.558Z,2.50
2023-05-21T13:57:19.633Z,2.60
2023-05-21T14:07:24.322Z,2.40
2023-05-21T14:17:30.798Z,2.20
2023-05-21T14:37:44.265Z,2.30
2023-05-21T14:47:48.021Z,2.30
2023-05-21T14:58:03.914Z,2.60
2023-05-21T15:08:10.425Z,2.30
2023-05-21T15:18:18.882Z,2.20
2023-05-21T15:28:48.038Z,2.60
2023-05-21T15:38:55.061Z,2.20
2023-05-21T15:49:19.936Z,2.00
2023-05-21T15:59:57.889Z,2.30
2023-05-21T16:10:23.153Z,3.10
2023-05-21T16:20:26.414Z,2.30
2023-05-21T16:30:29.589Z,2.70
2023-05-21T16:40:33.073Z,2.60
2023-05-21T16:50:36.270Z,3.10
2023-05-21T17:00:39.869Z,3.20
2023-05-21T17:10:43.148Z,3.50
2023-05-21T17:20:46.611Z,3.30
2023-05-21T17:30:49.984Z,4.10
2023-05-21T17:40:53.505Z,3.10
2023-05-21T17:50:56.662Z,3.80
2023-05-21T18:00:59.969Z,3.50
2023-05-21T18:11:03.250Z,3.20
2023-05-21T18:21:06.623Z,2.70
2023-05-21T18:31:10.074Z,7.80
2023-05-21T18:41:14.263Z,10.70
2023-05-21T18:51:17.551Z,7.30
2023-05-21T19:01:20.701Z,6.80
2023-05-21T19:11:24.076Z,7.50
2023-05-21T19:21:28.572Z,5.70
2023-05-21T19:31:33.591Z,5.00
2023-05-21T19:41:36.993Z,6.30
2023-05-21T19:51:40.247Z,5.30
2023-05-21T20:01:44.282Z,4.90
2023-05-21T20:11:50.685Z,4.80
2023-05-21T20:21:54.213Z,3.90
2023-05-21T20:31:57.494Z,4.00
2023-05-21T20:42:01.234Z,4.10
2023-05-21T20:52:04.848Z,5.90
2023-05-21T21:02:12.855Z,5.50
2023-05-21T21:12:26.017Z,4.50
2023-05-21T21:22:31.392Z,4.00
2023-05-21T21:32:34.653Z,3.80
2023-05-21T21:42:38.056Z,4.60
2023-05-21T21:52:41.481Z,5.00
2023-05-21T22:02:46.764Z,4.50
2023-05-21T22:12:50.846Z,4.40
2023-05-21T22:22:55.379Z,4.40
2023-05-21T22:32:59.145Z,4.00
2023-05-21T22:43:03.327Z,4.10
2023-05-21T22:53:07.091Z,3.90
2023-05-21T23:03:10.294Z,4.10
2023-05-21T23:13:13.477Z,4.30
2023-05-21T23:23:16.668Z,4.00
2023-05-21T23:33:20.217Z,3.70
2023-05-21T23:43:24.222Z,3.90
2023-05-21T23:53:27.245Z,3.40
